createdAt,value
2023-03-02T00:01:40.666Z,95687.00
2023-03-02T00:04:12.381Z,95684.94
2023-03-02T00:06:41.663Z,95679.09
2023-03-02T00:09:09.789Z,95657.09
2023-03-02T00:11:39.684Z,95678.66
2023-03-02T00:14:07.783Z,95681.88
2023-03-02T00:16:35.699Z,95701.47
2023-03-02T00:19:03.627Z,95684.63
2023-03-02T00:21:31.857Z,95668.34
2023-03-02T00:24:01.070Z,95671.56
2023-03-02T00:26:28.935Z,95662.22
2023-03-02T00:28:57.053Z,95669.16
2023-03-02T00:31:26.261Z,95653.22
2023-03-02T00:33:54.908Z,95671.63
2023-03-02T00:36:24.140Z,95656.88
2023-03-02T00:38:53.212Z,95627.09
2023-03-02T00:41:22.851Z,95653.13
2023-03-02T00:43:51.654Z,95621.59
2023-03-02T00:46:22.215Z,95643.59
2023-03-02T00:48:50.930Z,95652.16
2023-03-02T00:51:19.318Z,95628.75
2023-03-02T00:53:47.287Z,95637.72
2023-03-02T00:56:15.612Z,95604.03
2023-03-02T00:58:44.812Z,95627.91
2023-03-02T01:01:13.650Z,95515.81
2023-03-02T01:03:41.796Z,95478.47
2023-03-02T01:06:20.146Z,95607.72
2023-03-02T01:08:48.060Z,95592.13
2023-03-02T01:11:17.209Z,95622.34
2023-03-02T01:13:47.150Z,95595.59
2023-03-02T01:16:16.843Z,95598.13
2023-03-02T01:18:44.766Z,95617.78
2023-03-02T01:21:14.682Z,95599.72
2023-03-02T01:23:42.748Z,95613.50
2023-03-02T01:26:11.160Z,95605.28
2023-03-02T01:28:39.076Z,95565.31
2023-03-02T01:31:08.368Z,95613.13
2023-03-02T01:33:36.630Z,95604.91
2023-03-02T01:36:04.666Z,95605.25
2023-03-02T01:38:32.561Z,95612.94
2023-03-02T01:41:00.480Z,95555.13
2023-03-02T01:43:29.486Z,95603.53
2023-03-02T01:46:00.276Z,95603.53
2023-03-02T01:48:34.660Z,95602.44
2023-03-02T01:51:03.979Z,95593.94
2023-03-02T01:53:35.587Z,95594.38
2023-03-02T01:56:05.710Z,95591.44
2023-03-02T01:58:36.517Z,95602.38
2023-03-02T02:01:05.605Z,95607.72
2023-03-02T02:03:35.463Z,95608.81
2023-03-02T02:06:12.703Z,95601.31
2023-03-02T02:08:40.924Z,95601.81
2023-03-02T02:11:08.874Z,95599.72
2023-03-02T02:13:37.004Z,95599.22
2023-03-02T02:16:06.324Z,95594.94
2023-03-02T02:18:38.846Z,95594.72
2023-03-02T02:21:08.151Z,95597.69
2023-03-02T02:23:41.599Z,95596.09
2023-03-02T02:26:18.574Z,95591.91
2023-03-02T02:28:52.748Z,95602.00
2023-03-02T02:31:26.641Z,95606.03
2023-03-02T02:34:00.297Z,95592.13
2023-03-02T02:36:34.003Z,95592.34
2023-03-02T02:39:05.514Z,95590.19
2023-03-02T02:41:37.797Z,95589.59
2023-03-02T02:44:06.168Z,95598.41
2023-03-02T02:46:35.088Z,95529.47
2023-03-02T02:49:04.208Z,95583.13
2023-03-02T02:51:33.171Z,95583.13
2023-03-02T02:54:02.665Z,95565.63
2023-03-02T02:56:33.464Z,95433.88
2023-03-02T02:59:07.163Z,95591.19
2023-03-02T03:01:35.958Z,95567.78
2023-03-02T03:04:06.492Z,95571.25
2023-03-02T03:06:42.316Z,95581.81
2023-03-02T03:09:13.931Z,95567.56
2023-03-02T03:11:44.484Z,95573.56
2023-03-02T03:14:16.450Z,95577.84
2023-03-02T03:16:46.676Z,95521.41
2023-03-02T03:19:20.917Z,95574.59
2023-03-02T03:21:51.298Z,95575.09
2023-03-02T03:24:19.739Z,95578.06
2023-03-02T03:26:47.967Z,95575.41
2023-03-02T03:29:19.384Z,95569.88
2023-03-02T03:31:47.230Z,95567.44
2023-03-02T03:34:15.487Z,95577.97
2023-03-02T03:36:44.436Z,95591.63
2023-03-02T03:39:13.295Z,95575.72
2023-03-02T03:41:41.540Z,95586.91
2023-03-02T03:44:09.804Z,95589.81
2023-03-02T03:46:39.492Z,95578.34
2023-03-02T03:49:07.440Z,95563.59
2023-03-02T03:51:35.738Z,95572.56
2023-03-02T03:54:04.808Z,95585.41
2023-03-02T03:56:34.893Z,95572.69
2023-03-02T03:59:07.376Z,95578.19
2023-03-02T04:01:36.989Z,95589.38
2023-03-02T04:04:08.968Z,95558.88
2023-03-02T04:06:37.315Z,95585.97
2023-03-02T04:09:06.464Z,95584.41
2023-03-02T04:11:36.117Z,95573.28
2023-03-02T04:14:04.537Z,95568.00
2023-03-02T04:16:33.774Z,95566.44
2023-03-02T04:19:02.112Z,95583.66
2023-03-02T04:21:31.347Z,95554.19
2023-03-02T04:23:59.199Z,95579.06
2023-03-02T04:26:27.329Z,95577.16
2023-03-02T04:28:55.339Z,95573.72
2023-03-02T04:31:23.412Z,95578.56
2023-03-02T04:33:51.319Z,95574.78
2023-03-02T04:36:19.621Z,95567.88
2023-03-02T04:38:49.121Z,95558.81
2023-03-02T04:41:17.062Z,95570.97
2023-03-02T04:43:44.936Z,95549.88
2023-03-02T04:46:16.573Z,95583.59
2023-03-02T04:48:44.540Z,95557.38
2023-03-02T04:51:18.207Z,95589.75
2023-03-02T04:53:46.147Z,95587.56
2023-03-02T04:56:15.861Z,95590.75
2023-03-02T04:58:43.735Z,95554.25
2023-03-02T05:01:12.354Z,95587.34
2023-03-02T05:03:40.241Z,95589.28
2023-03-02T05:06:09.257Z,95575.50
2023-03-02T05:08:37.191Z,95526.72
2023-03-02T05:11:06.465Z,95589.28
2023-03-02T05:13:36.326Z,95542.75
2023-03-02T05:16:04.529Z,95591.78
2023-03-02T05:18:32.953Z,95594.03
2023-03-02T05:21:02.132Z,95581.28
2023-03-02T05:23:31.697Z,95594.50
2023-03-02T05:25:59.549Z,95599.44
2023-03-02T05:28:28.287Z,95566.31
2023-03-02T05:30:57.488Z,95602.44
2023-03-02T05:33:25.430Z,95608.03
2023-03-02T05:35:53.799Z,95600.72
2023-03-02T05:38:22.157Z,95600.94
2023-03-02T05:40:50.557Z,95605.72
2023-03-02T05:43:21.224Z,95605.50
2023-03-02T05:45:49.157Z,95619.97
2023-03-02T05:48:20.591Z,95615.97
2023-03-02T05:50:48.523Z,95613.50
2023-03-02T05:53:16.359Z,95615.13
2023-03-02T05:55:45.072Z,95620.66
2023-03-02T05:58:15.581Z,95616.06
2023-03-02T06:00:43.405Z,95611.22
2023-03-02T06:03:11.522Z,95606.53
2023-03-02T06:05:40.912Z,95613.31
2023-03-02T06:08:09.221Z,95585.22
2023-03-02T06:10:37.531Z,95602.81
2023-03-02T06:13:05.354Z,95578.78
2023-03-02T06:15:33.334Z,95627.84
2023-03-02T06:18:01.329Z,95616.78
2023-03-02T06:20:30.632Z,95612.16
2023-03-02T06:23:01.068Z,95612.81
2023-03-02T06:25:28.954Z,95641.78
2023-03-02T06:27:56.782Z,95631.66
2023-03-02T06:30:27.900Z,95641.28
2023-03-02T06:32:56.070Z,95635.28
2023-03-02T06:35:24.463Z,95640.06
2023-03-02T06:37:52.443Z,95640.28
2023-03-02T06:40:22.079Z,95652.22
2023-03-02T06:42:50.006Z,95639.69
2023-03-02T06:45:18.072Z,95638.59
2023-03-02T06:47:45.958Z,95615.91
2023-03-02T06:50:13.911Z,95630.44
2023-03-02T06:52:41.706Z,95619.81
2023-03-02T06:55:10.434Z,95591.56
2023-03-02T06:57:42.263Z,95643.00
2023-03-02T07:00:17.229Z,95633.38
2023-03-02T07:02:45.913Z,95640.91
2023-03-02T07:05:14.156Z,95636.72
2023-03-02T07:07:42.344Z,95643.66
2023-03-02T07:10:12.483Z,95633.91
2023-03-02T07:12:41.775Z,95641.78
2023-03-02T07:15:14.210Z,95587.88
2023-03-02T07:17:44.104Z,95577.41
2023-03-02T07:20:13.852Z,95617.66
2023-03-02T07:22:42.097Z,95634.56
2023-03-02T07:25:11.578Z,95630.28
2023-03-02T07:27:41.781Z,95635.41
2023-03-02T07:30:11.928Z,95632.66
2023-03-02T07:32:39.887Z,95646.22
2023-03-02T07:35:08.392Z,95639.88
2023-03-02T07:37:36.681Z,95641.69
2023-03-02T07:40:04.980Z,95626.81
2023-03-02T07:42:33.269Z,95641.88
2023-03-02T07:45:04.383Z,95638.09
2023-03-02T07:47:32.522Z,95592.34
2023-03-02T07:50:00.384Z,95650.91
2023-03-02T07:52:30.294Z,95624.84
2023-03-02T07:54:58.204Z,95638.34
2023-03-02T07:57:28.786Z,95619.47
2023-03-02T07:59:56.687Z,95632.75
2023-03-02T08:02:26.711Z,95635.97
2023-03-02T08:04:54.712Z,95634.16
2023-03-02T08:07:22.661Z,95609.50
2023-03-02T08:09:50.672Z,95640.09
2023-03-02T08:12:18.543Z,95637.13
2023-03-02T08:14:48.399Z,95637.91
2023-03-02T08:17:18.931Z,95618.97
2023-03-02T08:19:48.737Z,95614.13
2023-03-02T08:22:16.626Z,95625.81
2023-03-02T08:24:44.515Z,95633.63
2023-03-02T08:27:15.236Z,95623.72
2023-03-02T08:29:43.328Z,95620.59
2023-03-02T08:32:11.345Z,95607.59
2023-03-02T08:34:39.967Z,95584.78
2023-03-02T08:37:09.221Z,95637.19
2023-03-02T08:39:37.092Z,95624.88
2023-03-02T08:42:05.198Z,95626.06
2023-03-02T08:44:33.271Z,95605.81
2023-03-02T08:47:03.231Z,95622.69
2023-03-02T08:49:31.339Z,95615.44
2023-03-02T08:52:00.742Z,95624.56
2023-03-02T08:54:30.236Z,95608.31
2023-03-02T08:56:58.205Z,95627.06
2023-03-02T08:59:26.983Z,95620.31
2023-03-02T09:01:54.921Z,95597.19
2023-03-02T09:04:23.060Z,95609.06
2023-03-02T09:06:51.131Z,95596.31
2023-03-02T09:09:19.076Z,95611.19
2023-03-02T09:11:48.453Z,95604.66
2023-03-02T09:14:16.719Z,95607.84
2023-03-02T09:16:45.462Z,95519.09
2023-03-02T09:19:14.749Z,95567.16
2023-03-02T09:21:42.805Z,95571.81
2023-03-02T09:24:11.093Z,95616.19
2023-03-02T09:26:39.414Z,95615.78
2023-03-02T09:29:10.050Z,95618.47
2023-03-02T09:31:38.752Z,95607.13
2023-03-02T09:34:07.182Z,95612.38
2023-03-02T09:36:35.337Z,95610.13
2023-03-02T09:39:08.556Z,95607.94
2023-03-02T09:42:15.327Z,95600.59
2023-03-02T09:45:18.926Z,95596.63
2023-03-02T09:47:56.774Z,95615.88
2023-03-02T09:50:31.750Z,95614.16
2023-03-02T09:53:24.454Z,95606.84
2023-03-02T09:55:55.265Z,95601.50
2023-03-02T09:58:26.965Z,95601.47
2023-03-02T10:00:54.928Z,95600.47
2023-03-02T10:03:32.161Z,95605.53
2023-03-02T10:06:00.398Z,95594.13
2023-03-02T10:08:30.814Z,95570.56
2023-03-02T10:11:06.317Z,95587.78
2023-03-02T10:13:49.151Z,95598.59
2023-03-02T10:16:30.588Z,95608.22
2023-03-02T10:19:08.045Z,95613.19
2023-03-02T10:21:40.399Z,95604.16
2023-03-02T10:24:20.327Z,95601.09
2023-03-02T10:26:51.760Z,95607.34
2023-03-02T10:29:31.290Z,95599.50
2023-03-02T10:32:03.036Z,95601.19
2023-03-02T10:34:32.589Z,95599.50
2023-03-02T10:37:00.847Z,95606.22
2023-03-02T10:39:28.751Z,95596.72
2023-03-02T10:42:01.077Z,95613.41
2023-03-02T10:44:32.862Z,95593.16
2023-03-02T10:47:07.739Z,95595.75
2023-03-02T10:49:39.498Z,95580.47
2023-03-02T10:52:14.710Z,95551.50
2023-03-02T10:54:43.092Z,95576.41
2023-03-02T10:57:32.445Z,95579.19
2023-03-02T11:00:02.406Z,95547.53
2023-03-02T11:02:33.943Z,95567.38
2023-03-02T11:05:22.143Z,95578.19
2023-03-02T11:07:54.863Z,95575.09
2023-03-02T11:10:25.087Z,95561.50
2023-03-02T11:12:54.484Z,95569.72
2023-03-02T11:15:38.032Z,95561.03
2023-03-02T11:18:14.610Z,95558.84
2023-03-02T11:20:47.817Z,95558.44
2023-03-02T11:23:32.881Z,95558.91
2023-03-02T11:26:10.760Z,95550.53
2023-03-02T11:28:53.826Z,95556.47
2023-03-02T11:31:31.317Z,95506.53
2023-03-02T11:34:17.978Z,95557.00
2023-03-02T11:36:57.402Z,95544.19
2023-03-02T11:39:35.134Z,95542.69
2023-03-02T11:42:04.523Z,95546.38
2023-03-02T11:44:36.933Z,95472.09
2023-03-02T11:47:07.007Z,95530.38
2023-03-02T11:49:42.249Z,95537.81
2023-03-02T11:52:20.225Z,95519.00
2023-03-02T11:54:54.964Z,95541.19
2023-03-02T11:57:27.200Z,95532.28
2023-03-02T11:59:58.486Z,95538.50
2023-03-02T12:02:29.072Z,95548.44
2023-03-02T12:05:13.867Z,95527.63
2023-03-02T12:07:47.204Z,95533.69
2023-03-02T12:10:32.932Z,95533.75
2023-03-02T12:13:10.997Z,95421.75
2023-03-02T12:15:42.012Z,95548.59
2023-03-02T12:18:28.967Z,95539.00
2023-03-02T12:21:01.679Z,95522.22
2023-03-02T12:23:34.275Z,95542.16
2023-03-02T12:26:11.278Z,95535.31
2023-03-02T12:28:42.528Z,95506.56
2023-03-02T12:31:18.263Z,95524.84
2023-03-02T12:33:49.504Z,95515.81
2023-03-02T12:36:25.725Z,95465.09
2023-03-02T12:39:19.487Z,95528.75
2023-03-02T12:42:08.493Z,95520.66
2023-03-02T12:44:47.891Z,95537.53
2023-03-02T12:47:22.453Z,95481.56
2023-03-02T12:49:55.258Z,95401.88
2023-03-02T12:52:30.923Z,95497.28
2023-03-02T12:55:19.776Z,95536.69
2023-03-02T12:57:51.464Z,95521.34
2023-03-02T13:00:23.104Z,95518.94
2023-03-02T13:02:53.745Z,95517.00
2023-03-02T13:05:27.144Z,95511.56
2023-03-02T13:08:00.165Z,95504.31
2023-03-02T13:10:36.196Z,95510.38
2023-03-02T13:13:14.942Z,95511.75
2023-03-02T13:15:49.436Z,95506.13
2023-03-02T13:18:17.970Z,95492.44
2023-03-02T13:20:46.381Z,95505.84
2023-03-02T13:23:15.876Z,95491.84
2023-03-02T13:25:52.135Z,95490.41
2023-03-02T13:28:28.753Z,95488.91
2023-03-02T13:31:01.014Z,95486.38
2023-03-02T13:33:30.838Z,95484.31
2023-03-02T13:35:59.659Z,95484.81
2023-03-02T13:38:32.829Z,95485.25
2023-03-02T13:41:02.528Z,95465.59
2023-03-02T13:43:40.742Z,95478.22
2023-03-02T13:46:27.598Z,95465.22
2023-03-02T13:49:09.234Z,95412.56
2023-03-02T13:51:40.189Z,95473.38
2023-03-02T13:54:17.866Z,95458.16
2023-03-02T13:56:47.252Z,95474.59
2023-03-02T13:59:17.533Z,95447.38
2023-03-02T14:01:46.009Z,95474.13
2023-03-02T14:04:14.973Z,95415.22
2023-03-02T14:06:42.930Z,95468.16
2023-03-02T14:09:10.966Z,95468.53
2023-03-02T14:11:41.932Z,95335.03
2023-03-02T14:14:16.067Z,95469.00
2023-03-02T14:16:44.096Z,95469.31
2023-03-02T14:19:16.512Z,95465.78
2023-03-02T14:21:44.528Z,95463.00
2023-03-02T14:24:15.457Z,95460.19
2023-03-02T14:26:46.375Z,95464.56
2023-03-02T14:29:23.272Z,95457.00
2023-03-02T14:31:51.755Z,95470.94
2023-03-02T14:34:19.823Z,95440.72
2023-03-02T14:36:51.000Z,95460.22
2023-03-02T14:39:23.106Z,95468.22
2023-03-02T14:41:54.070Z,95452.78
2023-03-02T14:44:25.095Z,95448.16
2023-03-02T14:46:57.100Z,95444.56
2023-03-02T14:49:26.586Z,95437.28
2023-03-02T14:52:03.294Z,95360.44
2023-03-02T14:54:38.677Z,95454.13
2023-03-02T14:57:08.097Z,95457.94
2023-03-02T14:59:37.477Z,95478.88
2023-03-02T15:02:15.886Z,95465.09
2023-03-02T15:04:56.088Z,95453.28
2023-03-02T15:07:26.299Z,95454.38
2023-03-02T15:09:54.202Z,95449.63
2023-03-02T15:12:22.059Z,95453.59
2023-03-02T15:14:51.537Z,95396.72
2023-03-02T15:17:22.407Z,95430.13
2023-03-02T15:19:50.332Z,95442.41
2023-03-02T15:22:18.496Z,95475.03
2023-03-02T15:24:46.366Z,95466.84
2023-03-02T15:27:14.417Z,95469.81
2023-03-02T15:29:45.441Z,95470.41
2023-03-02T15:32:15.482Z,95455.03
2023-03-02T15:34:43.747Z,95456.38
2023-03-02T15:37:12.723Z,95479.63
2023-03-02T15:39:40.906Z,95475.41
2023-03-02T15:42:09.162Z,95434.59
2023-03-02T15:44:37.047Z,95480.38
2023-03-02T15:47:05.059Z,95483.47
2023-03-02T15:49:35.912Z,95478.88
2023-03-02T15:52:04.002Z,95482.38
2023-03-02T15:54:32.020Z,95488.44
2023-03-02T15:57:02.192Z,95487.63
2023-03-02T15:59:31.752Z,95495.28
2023-03-02T16:02:02.233Z,95492.09
2023-03-02T16:04:31.531Z,95477.31
2023-03-02T16:07:01.696Z,95500.63
2023-03-02T16:09:31.100Z,95474.94
2023-03-02T16:11:59.030Z,95503.09
2023-03-02T16:14:27.022Z,95500.81
2023-03-02T16:16:56.695Z,95490.94
2023-03-02T16:19:25.059Z,95504.66
2023-03-02T16:21:53.118Z,95510.25
2023-03-02T16:24:22.672Z,95506.84
2023-03-02T16:26:51.032Z,95482.81
2023-03-02T16:29:20.202Z,95514.34
2023-03-02T16:31:48.723Z,95482.09
2023-03-02T16:34:17.603Z,95493.88
2023-03-02T16:36:46.304Z,95483.38
2023-03-02T16:39:14.736Z,95518.88
2023-03-02T16:41:46.284Z,95517.38
2023-03-02T16:44:14.622Z,95517.44
2023-03-02T16:46:45.878Z,95512.41
2023-03-02T16:49:15.001Z,95529.25
2023-03-02T16:51:43.740Z,95522.00
2023-03-02T16:54:12.698Z,95522.38
2023-03-02T16:56:47.602Z,95435.16
2023-03-02T16:59:17.616Z,95513.44
2023-03-02T17:01:47.405Z,95491.00
2023-03-02T17:04:18.332Z,95534.25
2023-03-02T17:07:02.899Z,95538.81
2023-03-02T17:09:31.691Z,95540.47
2023-03-02T17:11:59.512Z,95537.09
2023-03-02T17:14:29.056Z,95531.81
2023-03-02T17:16:57.913Z,95506.59
2023-03-02T17:19:27.296Z,95503.81
2023-03-02T17:21:59.296Z,95535.00
2023-03-02T17:24:27.380Z,95521.56
2023-03-02T17:26:57.395Z,95487.00
2023-03-02T17:29:25.518Z,95538.34
2023-03-02T17:31:54.873Z,95541.66
2023-03-02T17:34:22.871Z,95522.59
2023-03-02T17:36:51.038Z,95536.47
2023-03-02T17:39:18.911Z,95546.69
2023-03-02T17:41:46.762Z,95537.47
2023-03-02T17:44:15.182Z,95524.34
2023-03-02T17:46:45.501Z,95535.59
2023-03-02T17:49:14.912Z,95545.13
2023-03-02T17:51:42.876Z,95545.91
2023-03-02T17:54:11.583Z,95384.16
2023-03-02T17:56:39.554Z,95539.00
2023-03-02T17:59:07.471Z,95539.50
2023-03-02T18:01:36.385Z,95542.16
2023-03-02T18:04:06.491Z,95552.56
2023-03-02T18:06:36.049Z,95519.69
2023-03-02T18:09:05.239Z,95541.44
2023-03-02T18:11:33.635Z,95518.94
2023-03-02T18:14:01.508Z,95537.19
2023-03-02T18:16:30.144Z,95530.81
2023-03-02T18:18:58.781Z,95445.28
2023-03-02T18:21:28.116Z,95536.94
2023-03-02T18:23:58.205Z,95537.91
2023-03-02T18:26:26.153Z,95481.78
2023-03-02T18:28:54.203Z,95525.97
2023-03-02T18:31:23.220Z,95509.94
2023-03-02T18:33:51.393Z,95523.47
2023-03-02T18:36:19.423Z,95535.44
2023-03-02T18:38:47.552Z,95528.44
2023-03-02T18:41:17.356Z,95526.84
2023-03-02T18:43:45.540Z,95529.31
2023-03-02T18:46:21.776Z,95537.00
2023-03-02T18:48:50.262Z,95485.94
2023-03-02T18:51:18.501Z,95518.38
2023-03-02T18:53:47.043Z,95517.81
2023-03-02T18:56:16.787Z,95528.50
2023-03-02T18:58:44.940Z,95504.84
2023-03-02T19:01:15.870Z,95514.66
2023-03-02T19:03:46.023Z,95526.84
2023-03-02T19:06:14.713Z,95512.09
2023-03-02T19:08:42.615Z,95526.69
2023-03-02T19:11:11.719Z,95527.56
2023-03-02T19:13:41.123Z,95487.19
2023-03-02T19:16:09.697Z,95521.72
2023-03-02T19:18:38.922Z,95507.31
2023-03-02T19:21:08.224Z,95514.22
2023-03-02T19:23:36.290Z,95526.91
2023-03-02T19:26:08.664Z,95519.97
2023-03-02T19:28:38.566Z,95530.66
2023-03-02T19:31:11.990Z,95510.75
2023-03-02T19:33:41.083Z,95529.56
2023-03-02T19:36:10.396Z,95531.97
2023-03-02T19:38:41.642Z,95534.13
2023-03-02T19:41:29.065Z,95538.97
2023-03-02T19:43:57.366Z,95536.56
2023-03-02T19:46:29.514Z,95536.56
2023-03-02T19:48:57.514Z,95520.69
2023-03-02T19:51:25.515Z,95549.41
2023-03-02T19:53:53.763Z,95544.66
2023-03-02T19:56:26.811Z,95530.22
2023-03-02T19:58:54.686Z,95514.31
2023-03-02T20:01:25.076Z,95534.25
2023-03-02T20:03:55.926Z,95525.56
2023-03-02T20:06:26.320Z,95539.09
2023-03-02T20:08:54.488Z,95486.66
2023-03-02T20:11:22.583Z,95538.28
2023-03-02T20:13:51.264Z,95546.38
2023-03-02T20:16:28.554Z,95492.25
2023-03-02T20:18:59.000Z,95536.44
2023-03-02T20:21:28.236Z,95537.50
2023-03-02T20:23:56.451Z,95544.19
2023-03-02T20:26:28.373Z,95539.97
2023-03-02T20:28:57.810Z,95530.34
2023-03-02T20:31:28.538Z,95511.34
2023-03-02T20:33:59.251Z,95527.38
2023-03-02T20:36:31.066Z,95535.69
2023-03-02T20:39:02.495Z,95524.56
2023-03-02T20:41:30.993Z,95511.84
2023-03-02T20:43:59.227Z,95522.34
2023-03-02T20:46:32.453Z,95490.84
2023-03-02T20:49:02.176Z,95521.84
2023-03-02T20:51:30.926Z,95517.97
2023-03-02T20:54:01.748Z,95518.47
2023-03-02T20:56:30.563Z,95469.16
2023-03-02T20:59:00.840Z,95504.19
2023-03-02T21:01:29.806Z,95518.72
2023-03-02T21:03:58.636Z,95490.56
2023-03-02T21:06:29.601Z,95507.75
2023-03-02T21:09:00.185Z,95498.59
2023-03-02T21:11:29.628Z,95511.28
2023-03-02T21:13:59.401Z,95510.47
2023-03-02T21:16:29.532Z,95511.78
2023-03-02T21:18:57.546Z,95506.50
2023-03-02T21:21:40.580Z,95456.22
2023-03-02T21:24:10.031Z,95501.16
2023-03-02T21:26:38.017Z,95478.66
2023-03-02T21:29:06.633Z,95463.06
2023-03-02T21:31:35.797Z,95501.16
2023-03-02T21:34:03.760Z,95484.78
2023-03-02T21:36:33.686Z,95426.06
2023-03-02T21:39:01.607Z,95503.38
2023-03-02T21:41:29.461Z,95435.75
2023-03-02T21:43:57.908Z,95491.66
2023-03-02T21:46:26.811Z,95404.66
2023-03-02T21:48:55.017Z,95491.69
2023-03-02T21:51:23.064Z,95492.50
2023-03-02T21:53:53.242Z,95436.66
2023-03-02T21:56:23.152Z,95496.81
2023-03-02T21:58:52.779Z,95469.50
2023-03-02T22:01:21.186Z,95463.13
2023-03-02T22:03:50.033Z,95465.19
2023-03-02T22:06:19.646Z,95481.09
2023-03-02T22:08:47.497Z,95486.41
2023-03-02T22:11:21.711Z,95481.38
2023-03-02T22:13:50.534Z,95442.22
2023-03-02T22:16:20.391Z,95496.09
2023-03-02T22:18:50.522Z,95468.09
2023-03-02T22:21:28.040Z,95463.16
2023-03-02T22:24:01.660Z,95476.97
2023-03-02T22:26:33.809Z,95463.63
2023-03-02T22:29:10.223Z,95398.84
2023-03-02T22:31:46.805Z,95428.44
2023-03-02T22:34:18.721Z,95468.72
2023-03-02T22:36:50.905Z,95393.50
2023-03-02T22:39:22.552Z,95460.19
2023-03-02T22:41:55.481Z,95453.63
2023-03-02T22:44:24.249Z,95456.03
2023-03-02T22:46:53.511Z,95450.94
2023-03-02T22:49:21.366Z,95431.38
2023-03-02T22:51:49.272Z,95452.09
2023-03-02T22:54:23.739Z,95450.00
2023-03-02T22:56:56.975Z,95449.19
2023-03-02T22:59:26.954Z,95442.50
2023-03-02T23:01:58.843Z,95421.06
2023-03-02T23:04:28.366Z,95431.56
2023-03-02T23:06:57.497Z,95386.88
2023-03-02T23:09:27.627Z,95379.47
2023-03-02T23:11:59.958Z,95429.69
2023-03-02T23:14:30.037Z,95369.34
2023-03-02T23:17:00.306Z,95430.78
2023-03-02T23:19:29.769Z,95439.78
2023-03-02T23:21:58.445Z,95437.84
2023-03-02T23:24:26.527Z,95433.81
2023-03-02T23:26:54.458Z,95376.09
2023-03-02T23:29:23.923Z,95418.88
2023-03-02T23:31:51.943Z,95404.47
2023-03-02T23:34:19.946Z,95410.47
2023-03-02T23:36:47.796Z,95398.28
2023-03-02T23:39:15.856Z,95416.47
2023-03-02T23:41:43.811Z,95405.38
2023-03-02T23:44:11.770Z,95367.06
2023-03-02T23:46:41.100Z,95413.00
2023-03-02T23:49:09.088Z,95404.56
2023-03-02T23:51:36.947Z,95401.09
2023-03-02T23:54:05.264Z,95357.69
2023-03-02T23:56:33.148Z,95356.09
2023-03-02T23:59:02.248Z,95341.22
